createdAt,value
2018-02-21T00:01:21.887Z,3.60
2018-02-21T00:03:50.130Z,3.50
2018-02-21T00:06:18.381Z,3.40
2018-02-21T00:08:46.883Z,3.40
2018-02-21T00:11:15.137Z,3.20
2018-02-21T00:13:44.451Z,3.10
2018-02-21T00:16:12.782Z,2.90
2018-02-21T00:18:41.042Z,2.80
2018-02-21T00:21:09.292Z,2.70
2018-02-21T00:23:37.565Z,2.60
2018-02-21T00:26:05.830Z,2.50
2018-02-21T00:28:34.078Z,2.40
2018-02-21T00:31:02.349Z,2.40
2018-02-21T00:33:30.603Z,2.30
2018-02-21T00:35:59.618Z,2.30
2018-02-21T00:38:27.935Z,2.30
2018-02-21T00:40:56.182Z,2.30
2018-02-21T00:43:24.434Z,2.30
2018-02-21T00:45:52.790Z,2.40
2018-02-21T00:48:21.802Z,2.30
2018-02-21T00:50:50.050Z,2.30
2018-02-21T00:53:18.318Z,2.40
2018-02-21T00:55:47.337Z,2.50
2018-02-21T00:58:15.584Z,2.50
2018-02-21T01:00:43.913Z,2.40
2018-02-21T01:03:12.157Z,2.20
2018-02-21T01:05:40.405Z,2.10
2018-02-21T01:08:08.679Z,2.30
2018-02-21T01:10:38.474Z,2.40
2018-02-21T01:13:06.730Z,2.40
2018-02-21T01:15:34.990Z,2.50
2018-02-21T01:18:03.238Z,2.40
2018-02-21T01:20:31.478Z,2.20
2018-02-21T01:23:00.065Z,2.10
2018-02-21T01:25:28.313Z,2.00
2018-02-21T01:27:56.562Z,1.90
2018-02-21T01:30:24.828Z,1.80
2018-02-21T01:32:53.076Z,1.70
2018-02-21T01:35:21.509Z,1.80
2018-02-21T01:37:49.785Z,1.80
2018-02-21T01:40:18.034Z,1.80
2018-02-21T01:42:46.277Z,1.80
2018-02-21T01:45:14.862Z,1.80
2018-02-21T01:47:43.201Z,1.80
2018-02-21T01:50:12.210Z,2.00
2018-02-21T01:52:40.489Z,2.00
2018-02-21T01:55:08.730Z,2.20
2018-02-21T01:57:36.976Z,2.20
2018-02-21T02:00:05.394Z,2.20
2018-02-21T02:02:34.402Z,1.90
2018-02-21T02:05:03.421Z,2.00
2018-02-21T02:07:32.118Z,1.90
2018-02-21T02:10:00.369Z,1.90
2018-02-21T02:12:28.840Z,1.80
2018-02-21T02:14:57.870Z,1.80
2018-02-21T02:17:26.205Z,1.70
2018-02-21T02:19:55.225Z,1.50
2018-02-21T02:22:23.493Z,1.50
2018-02-21T02:24:51.738Z,1.50
2018-02-21T02:27:19.985Z,1.50
2018-02-21T02:29:48.449Z,1.60
2018-02-21T02:32:16.689Z,1.70
2018-02-21T02:34:44.938Z,1.70
2018-02-21T02:37:14.473Z,1.50
2018-02-21T02:39:55.263Z,1.50
2018-02-21T02:42:23.550Z,1.50
2018-02-21T02:44:51.789Z,1.40
2018-02-21T02:47:20.040Z,1.30
2018-02-21T02:49:48.698Z,1.40
2018-02-21T02:52:16.953Z,1.50
2018-02-21T02:54:45.190Z,1.50
2018-02-21T02:57:14.226Z,1.90
2018-02-21T02:59:42.473Z,1.80
2018-02-21T03:02:11.489Z,1.60
2018-02-21T03:04:39.753Z,1.60
2018-02-21T03:07:08.002Z,1.40
2018-02-21T03:09:37.009Z,1.20
2018-02-21T03:12:05.650Z,1.20
2018-02-21T03:14:34.297Z,1.40
2018-02-21T03:17:03.309Z,1.50
2018-02-21T03:19:31.577Z,1.50
2018-02-21T03:21:59.833Z,1.30
2018-02-21T03:24:31.157Z,1.20
2018-02-21T03:26:59.422Z,1.10
2018-02-21T03:29:27.670Z,1.40
2018-02-21T03:31:55.917Z,1.60
2018-02-21T03:34:24.438Z,1.60
2018-02-21T03:36:52.691Z,1.50
2018-02-21T03:39:20.938Z,1.50
2018-02-21T03:41:49.980Z,1.50
2018-02-21T03:44:18.230Z,1.50
2018-02-21T03:46:47.237Z,1.60
2018-02-21T03:49:15.510Z,1.60
2018-02-21T03:51:43.749Z,1.50
2018-02-21T03:54:12.778Z,1.30
2018-02-21T03:56:41.391Z,1.30
2018-02-21T03:59:09.642Z,1.40
2018-02-21T04:01:38.149Z,1.30
2018-02-21T04:04:06.478Z,1.30
2018-02-21T04:06:35.502Z,1.20
2018-02-21T04:09:03.741Z,1.20
2018-02-21T04:11:32.018Z,1.20
2018-02-21T04:14:00.258Z,1.40
2018-02-21T04:16:28.694Z,1.40
2018-02-21T04:19:01.107Z,1.40
2018-02-21T04:21:29.353Z,1.40
2018-02-21T04:23:57.777Z,1.50
2018-02-21T04:26:26.051Z,1.40
2018-02-21T04:28:54.293Z,1.20
2018-02-21T04:31:22.549Z,1.30
2018-02-21T04:33:50.825Z,1.30
2018-02-21T04:36:19.073Z,1.20
2018-02-21T04:38:47.318Z,1.20
2018-02-21T04:41:16.092Z,1.20
2018-02-21T04:43:44.329Z,1.10
2018-02-21T04:46:12.578Z,1.00
2018-02-21T04:48:40.848Z,0.80
2018-02-21T04:51:09.093Z,0.80
2018-02-21T04:53:37.345Z,0.90
2018-02-21T04:56:13.366Z,0.90
2018-02-21T04:59:01.430Z,0.80
2018-02-21T05:01:29.754Z,0.70
2018-02-21T05:03:58.002Z,0.60
2018-02-21T05:06:27.018Z,0.80
2018-02-21T05:08:55.289Z,0.80
2018-02-21T05:11:23.537Z,0.80
2018-02-21T05:13:51.794Z,0.60
2018-02-21T05:16:20.058Z,0.60
2018-02-21T05:18:48.586Z,0.60
2018-02-21T05:21:17.602Z,0.90
2018-02-21T05:23:45.929Z,0.80
2018-02-21T05:26:14.169Z,0.80
2018-02-21T05:28:42.413Z,0.90
2018-02-21T05:31:11.446Z,1.00
2018-02-21T05:33:39.694Z,0.90
2018-02-21T05:36:08.102Z,0.90
2018-02-21T05:38:36.382Z,0.90
2018-02-21T05:41:04.626Z,0.90
2018-02-21T05:43:32.868Z,0.90
2018-02-21T05:46:01.468Z,0.80
2018-02-21T05:48:29.746Z,0.80
2018-02-21T05:50:58.770Z,0.80
2018-02-21T05:53:27.041Z,0.80
2018-02-21T05:55:55.281Z,0.80
2018-02-21T05:58:23.527Z,0.80
2018-02-21T06:00:51.793Z,0.70
2018-02-21T06:03:20.055Z,0.70
2018-02-21T06:05:48.298Z,0.60
2018-02-21T06:08:16.842Z,0.40
2018-02-21T06:10:45.094Z,0.30
2018-02-21T06:13:13.346Z,0.30
2018-02-21T06:15:41.618Z,0.30
2018-02-21T06:18:10.631Z,0.40
2018-02-21T06:20:39.298Z,0.30
2018-02-21T06:23:08.329Z,0.30
2018-02-21T06:25:36.582Z,0.30
2018-02-21T06:28:04.833Z,0.30
2018-02-21T06:30:33.465Z,0.20
2018-02-21T06:33:01.706Z,0.20
2018-02-21T06:35:29.950Z,0.30
2018-02-21T06:37:58.223Z,0.50
2018-02-21T06:40:26.470Z,0.60
2018-02-21T06:42:54.721Z,0.80
2018-02-21T06:45:23.018Z,0.80
2018-02-21T06:47:51.262Z,0.80
2018-02-21T06:50:19.524Z,0.70
2018-02-21T06:52:47.841Z,0.60
2018-02-21T06:55:16.100Z,0.60
2018-02-21T06:57:44.341Z,0.80
2018-02-21T07:00:12.616Z,0.80
2018-02-21T07:02:40.857Z,0.80
2018-02-21T07:05:09.102Z,0.80
2018-02-21T07:07:37.369Z,0.70
2018-02-21T07:10:05.630Z,0.70
2018-02-21T07:12:33.869Z,0.60
2018-02-21T07:15:02.455Z,0.60
2018-02-21T07:17:30.694Z,0.60
2018-02-21T07:19:58.938Z,0.50
2018-02-21T07:22:27.565Z,0.40
2018-02-21T07:24:55.809Z,0.20
2018-02-21T07:27:24.053Z,0.30
2018-02-21T07:29:52.317Z,0.50
2018-02-21T07:32:20.574Z,0.70
2018-02-21T07:34:48.818Z,0.80
2018-02-21T07:37:18.165Z,0.70
2018-02-21T07:39:46.415Z,0.70
2018-02-21T07:42:14.671Z,0.70
2018-02-21T07:44:42.942Z,0.60
2018-02-21T07:47:11.194Z,0.80
2018-02-21T07:49:39.445Z,0.90
2018-02-21T07:52:07.710Z,0.90
2018-02-21T07:54:35.954Z,1.00
2018-02-21T07:57:04.198Z,1.20
2018-02-21T07:59:33.277Z,1.20
2018-02-21T08:02:01.527Z,1.20
2018-02-21T08:04:29.769Z,1.30
2018-02-21T08:06:58.800Z,1.40
2018-02-21T08:09:27.049Z,1.40
2018-02-21T08:11:56.213Z,1.50
2018-02-21T08:14:24.467Z,1.50
2018-02-21T08:16:52.726Z,1.60
2018-02-21T08:19:20.982Z,1.70
2018-02-21T08:21:49.614Z,1.70
2018-02-21T08:24:17.956Z,1.80
2018-02-21T08:26:46.965Z,2.00
2018-02-21T08:29:15.345Z,2.00
2018-02-21T08:31:43.589Z,2.00
2018-02-21T08:34:12.038Z,2.10
2018-02-21T08:36:40.310Z,2.10
2018-02-21T08:39:08.563Z,2.10
2018-02-21T08:41:36.810Z,2.10
2018-02-21T08:44:05.330Z,2.20
2018-02-21T08:46:33.579Z,2.20
2018-02-21T08:49:01.817Z,2.30
2018-02-21T08:51:30.095Z,2.40
2018-02-21T08:53:58.333Z,2.40
2018-02-21T08:56:26.581Z,2.50
2018-02-21T08:58:54.862Z,2.60
2018-02-21T09:01:23.100Z,2.70
2018-02-21T09:03:52.114Z,2.90
2018-02-21T09:06:20.477Z,2.90
2018-02-21T09:08:48.725Z,2.80
2018-02-21T09:11:17.009Z,3.00
2018-02-21T09:13:45.261Z,3.10
2018-02-21T09:16:13.502Z,3.10
2018-02-21T09:18:41.750Z,3.00
2018-02-21T09:21:10.028Z,3.10
2018-02-21T09:23:38.273Z,3.10
2018-02-21T09:26:06.813Z,3.20
2018-02-21T09:28:36.181Z,3.40
2018-02-21T09:31:04.434Z,3.40
2018-02-21T09:33:32.690Z,3.50
2018-02-21T09:36:00.961Z,3.50
2018-02-21T09:38:29.210Z,3.60
2018-02-21T09:40:57.454Z,3.70
2018-02-21T09:43:25.721Z,3.80
2018-02-21T09:45:53.970Z,3.80
2018-02-21T09:48:22.218Z,3.80
2018-02-21T09:50:51.457Z,4.00
2018-02-21T09:53:19.701Z,4.00
2018-02-21T09:55:47.952Z,4.10
2018-02-21T09:58:16.398Z,4.20
2018-02-21T10:00:44.637Z,4.40
2018-02-21T10:03:12.886Z,4.80
2018-02-21T10:05:41.150Z,5.30
2018-02-21T10:08:09.402Z,5.70
2018-02-21T10:10:37.642Z,6.10
2018-02-21T10:13:07.294Z,6.50
2018-02-21T10:15:35.542Z,6.40
2018-02-21T10:18:03.793Z,6.70
2018-02-21T10:20:32.821Z,7.30
2018-02-21T10:23:01.069Z,7.30
2018-02-21T10:25:30.083Z,7.70
2018-02-21T10:27:58.469Z,7.60
2018-02-21T10:30:26.718Z,8.00
2018-02-21T10:32:54.966Z,8.30
2018-02-21T10:35:23.630Z,8.30
2018-02-21T10:37:51.881Z,8.50
2018-02-21T10:40:20.124Z,8.70
2018-02-21T10:42:48.397Z,9.10
2018-02-21T10:45:16.650Z,9.30
2018-02-21T10:47:44.898Z,9.50
2018-02-21T10:50:13.270Z,9.30
2018-02-21T10:52:41.521Z,9.10
2018-02-21T10:55:09.770Z,9.30
2018-02-21T10:57:38.430Z,9.60
2018-02-21T11:00:06.682Z,10.00
2018-02-21T11:02:34.938Z,10.20
2018-02-21T11:05:03.214Z,10.60
2018-02-21T11:07:32.234Z,11.00
2018-02-21T11:10:00.490Z,11.00
2018-02-21T11:12:28.758Z,11.20
2018-02-21T11:14:57.016Z,11.50
2018-02-21T11:17:25.281Z,11.90
2018-02-21T11:19:53.848Z,12.00
2018-02-21T11:22:22.129Z,12.20
2018-02-21T11:24:50.408Z,12.10
2018-02-21T11:27:18.655Z,12.20
2018-02-21T11:29:47.410Z,12.40
2018-02-21T11:32:15.646Z,12.70
2018-02-21T11:34:43.921Z,13.10
2018-02-21T11:37:12.169Z,13.30
2018-02-21T11:39:40.422Z,13.60
2018-02-21T11:42:08.959Z,13.70
2018-02-21T11:44:37.209Z,13.90
2018-02-21T11:47:05.453Z,14.30
2018-02-21T11:49:33.734Z,14.70
2018-02-21T11:52:02.754Z,14.90
2018-02-21T11:54:31.029Z,14.90
2018-02-21T11:56:59.309Z,15.20
2018-02-21T11:59:27.562Z,15.40
2018-02-21T12:01:55.819Z,15.60
2018-02-21T12:04:24.137Z,15.80
2018-02-21T12:06:52.390Z,16.10
2018-02-21T12:09:21.410Z,16.50
2018-02-21T12:11:49.677Z,16.40
2018-02-21T12:14:17.951Z,16.70
2018-02-21T12:16:46.282Z,16.70
2018-02-21T12:19:14.998Z,17.00
2018-02-21T12:21:57.461Z,17.40
2018-02-21T12:24:29.213Z,17.40
2018-02-21T12:26:59.434Z,17.50
2018-02-21T12:29:27.759Z,17.60
2018-02-21T12:31:57.995Z,17.80
2018-02-21T12:34:26.248Z,17.90
2018-02-21T12:36:54.501Z,17.90
2018-02-21T12:39:36.850Z,17.90
2018-02-21T12:42:06.173Z,17.90
2018-02-21T12:44:34.426Z,17.90
2018-02-21T12:47:03.165Z,18.20
2018-02-21T12:49:31.440Z,18.40
2018-02-21T12:51:59.686Z,18.70
2018-02-21T12:54:28.143Z,18.90
2018-02-21T12:56:57.477Z,19.30
2018-02-21T12:59:27.076Z,19.30
2018-02-21T13:01:57.903Z,19.40
2018-02-21T13:04:26.957Z,19.80
2018-02-21T13:06:55.890Z,19.80
2018-02-21T13:09:24.171Z,19.90
2018-02-21T13:11:53.582Z,20.20
2018-02-21T13:14:22.580Z,20.60
2018-02-21T13:16:50.926Z,20.50
2018-02-21T13:19:19.950Z,21.10
2018-02-21T13:21:48.542Z,21.00
2018-02-21T13:24:21.609Z,21.20
2018-02-21T13:26:51.507Z,21.20
2018-02-21T13:29:20.790Z,21.30
2018-02-21T13:31:52.369Z,21.30
2018-02-21T13:34:23.390Z,21.50
2018-02-21T13:36:53.694Z,21.60
2018-02-21T13:39:24.218Z,21.70
2018-02-21T13:41:52.511Z,21.70
2018-02-21T13:44:21.701Z,21.60
2018-02-21T13:46:49.958Z,21.60
2018-02-21T13:49:18.216Z,21.60
2018-02-21T13:51:46.464Z,21.60
2018-02-21T13:54:17.006Z,21.90
2018-02-21T13:56:45.362Z,21.90
2018-02-21T13:59:14.579Z,22.10
2018-02-21T14:01:44.000Z,22.20
2018-02-21T14:04:14.706Z,22.20
2018-02-21T14:06:44.958Z,22.80
2018-02-21T14:09:14.644Z,22.70
2018-02-21T14:11:43.817Z,22.80
2018-02-21T14:14:13.621Z,22.70
2018-02-21T14:16:41.962Z,22.70
2018-02-21T14:19:10.378Z,22.70
2018-02-21T14:21:38.942Z,22.80
2018-02-21T14:24:07.234Z,22.90
2018-02-21T14:26:35.647Z,23.10
2018-02-21T14:29:04.734Z,23.00
2018-02-21T14:31:33.030Z,23.00
2018-02-21T14:34:02.606Z,22.80
2018-02-21T14:36:30.881Z,22.80
2018-02-21T14:38:59.372Z,22.80
2018-02-21T14:41:27.618Z,22.80
2018-02-21T14:43:57.426Z,22.80
2018-02-21T14:46:25.678Z,22.80
2018-02-21T14:48:53.930Z,22.80
2018-02-21T14:51:22.201Z,22.80
2018-02-21T14:53:52.405Z,22.00
2018-02-21T14:56:20.667Z,22.00
2018-02-21T14:58:49.882Z,20.80
2018-02-21T15:01:18.144Z,19.50
2018-02-21T15:03:46.538Z,18.50
2018-02-21T15:06:14.990Z,17.60
2018-02-21T15:08:43.305Z,17.20
2018-02-21T15:11:11.560Z,17.10
2018-02-21T15:13:39.834Z,16.70
2018-02-21T15:16:08.161Z,16.60
2018-02-21T15:18:37.209Z,17.00
2018-02-21T15:21:05.690Z,16.90
2018-02-21T15:23:33.933Z,17.10
2018-02-21T15:26:04.414Z,16.90
2018-02-21T15:28:32.869Z,16.50
2018-02-21T15:31:02.094Z,16.00
2018-02-21T15:33:30.351Z,15.50
2018-02-21T15:35:58.750Z,14.90
2018-02-21T15:38:27.001Z,14.50
2018-02-21T15:40:55.258Z,14.10
2018-02-21T15:43:23.530Z,13.80
2018-02-21T15:45:51.788Z,13.50
2018-02-21T15:48:20.037Z,13.20
2018-02-21T15:50:48.595Z,13.10
2018-02-21T15:53:16.838Z,13.00
2018-02-21T15:55:45.099Z,12.90
2018-02-21T15:58:14.622Z,12.70
2018-02-21T16:00:45.105Z,12.40
2018-02-21T16:03:13.360Z,12.20
2018-02-21T16:05:41.633Z,12.00
2018-02-21T16:08:09.921Z,11.80
2018-02-21T16:10:38.305Z,11.60
2018-02-21T16:13:07.185Z,11.60
2018-02-21T16:15:37.710Z,11.50
2018-02-21T16:18:05.991Z,11.30
2018-02-21T16:20:34.305Z,11.30
2018-02-21T16:23:03.333Z,10.90
2018-02-21T16:25:31.581Z,10.90
2018-02-21T16:28:00.068Z,10.80
2018-02-21T16:30:29.113Z,10.60
2018-02-21T16:32:57.350Z,10.50
2018-02-21T16:35:26.167Z,10.40
2018-02-21T16:37:54.467Z,10.30
2018-02-21T16:40:22.846Z,10.20
2018-02-21T16:42:51.221Z,10.00
2018-02-21T16:45:25.328Z,9.80
2018-02-21T16:47:53.602Z,9.70
2018-02-21T16:50:21.880Z,9.60
2018-02-21T16:52:50.139Z,9.40
2018-02-21T16:55:18.722Z,9.20
2018-02-21T16:57:46.966Z,9.20
2018-02-21T17:00:15.259Z,9.00
2018-02-21T17:02:43.846Z,8.90
2018-02-21T17:05:12.089Z,8.90
2018-02-21T17:07:40.343Z,9.00
2018-02-21T17:10:10.891Z,8.80
2018-02-21T17:12:39.154Z,8.50
2018-02-21T17:15:07.396Z,8.40
2018-02-21T17:17:36.102Z,8.40
2018-02-21T17:20:04.594Z,8.30
2018-02-21T17:22:32.846Z,8.20
2018-02-21T17:25:01.128Z,8.10
2018-02-21T17:27:29.370Z,8.00
2018-02-21T17:29:57.613Z,8.00
2018-02-21T17:32:28.050Z,8.10
2018-02-21T17:34:57.061Z,8.10
2018-02-21T17:37:27.233Z,8.00
2018-02-21T17:39:55.594Z,7.90
2018-02-21T17:42:23.850Z,7.90
2018-02-21T17:44:52.102Z,7.80
2018-02-21T17:47:22.658Z,7.70
2018-02-21T17:49:50.910Z,7.70
2018-02-21T17:52:19.153Z,7.60
2018-02-21T17:54:47.470Z,7.50
2018-02-21T17:57:16.487Z,7.20
2018-02-21T17:59:44.805Z,7.20
2018-02-21T18:02:13.685Z,7.10
2018-02-21T18:04:41.922Z,7.00
2018-02-21T18:07:16.149Z,6.90
2018-02-21T18:09:44.397Z,7.00
2018-02-21T18:12:12.846Z,7.10
2018-02-21T18:14:41.192Z,7.00
2018-02-21T18:17:09.423Z,7.00
2018-02-21T18:19:39.826Z,6.90
2018-02-21T18:22:08.480Z,6.90
2018-02-21T18:24:36.890Z,6.90
2018-02-21T18:27:05.133Z,6.90
2018-02-21T18:29:33.725Z,6.80
2018-02-21T18:32:01.977Z,6.80
2018-02-21T18:34:30.241Z,6.70
2018-02-21T18:36:58.841Z,6.60
2018-02-21T18:39:27.093Z,6.50
2018-02-21T18:41:55.736Z,6.50
2018-02-21T18:44:24.325Z,6.50
2018-02-21T18:46:54.810Z,6.40
2018-02-21T18:49:23.806Z,6.40
2018-02-21T18:51:52.082Z,6.30
2018-02-21T18:54:20.325Z,6.30
2018-02-21T18:56:49.342Z,6.30
2018-02-21T18:59:17.616Z,6.20
2018-02-21T19:01:47.814Z,6.10
2018-02-21T19:04:16.489Z,6.10
2018-02-21T19:06:45.245Z,6.00
2018-02-21T19:09:13.495Z,6.00
2018-02-21T19:11:41.933Z,5.90
2018-02-21T19:14:11.285Z,5.80
2018-02-21T19:16:40.889Z,5.80
2018-02-21T19:19:11.061Z,5.80
2018-02-21T19:21:39.636Z,5.80
2018-02-21T19:24:07.894Z,5.80
2018-02-21T19:26:36.205Z,5.90
2018-02-21T19:29:04.770Z,6.00
2018-02-21T19:31:34.194Z,5.90
2018-02-21T19:34:03.486Z,5.80
2018-02-21T19:36:32.812Z,5.70
2018-02-21T19:39:03.015Z,5.50
2018-02-21T19:41:31.405Z,5.40
2018-02-21T19:44:00.370Z,5.40
2018-02-21T19:46:28.764Z,5.40
2018-02-21T19:48:58.067Z,5.50
2018-02-21T19:51:26.826Z,5.50
2018-02-21T19:53:55.121Z,5.50
2018-02-21T19:56:24.594Z,5.40
2018-02-21T19:58:54.094Z,5.40
2018-02-21T20:01:24.258Z,5.20
2018-02-21T20:03:52.637Z,5.20
2018-02-21T20:06:21.057Z,5.20
2018-02-21T20:08:49.393Z,5.20
2018-02-21T20:11:17.818Z,5.30
2018-02-21T20:13:47.159Z,5.20
2018-02-21T20:16:15.482Z,5.20
2018-02-21T20:18:44.498Z,5.20
2018-02-21T20:21:12.777Z,5.20
2018-02-21T20:23:41.022Z,5.30
2018-02-21T20:26:13.914Z,5.10
2018-02-21T20:28:42.938Z,5.10
2018-02-21T20:31:11.280Z,5.00
2018-02-21T20:33:41.681Z,5.10
2018-02-21T20:36:09.922Z,5.00
2018-02-21T20:38:39.786Z,4.90
2018-02-21T20:41:10.048Z,4.80
2018-02-21T20:43:38.389Z,4.80
2018-02-21T20:46:06.761Z,4.70
2018-02-21T20:48:35.030Z,4.60
2018-02-21T20:51:03.657Z,4.50
2018-02-21T20:53:32.830Z,4.40
2018-02-21T20:56:01.585Z,4.40
2018-02-21T20:58:29.834Z,4.50
2018-02-21T21:00:58.281Z,4.50
2018-02-21T21:03:28.513Z,4.40
2018-02-21T21:05:57.524Z,4.30
2018-02-21T21:08:25.861Z,4.30
2018-02-21T21:10:54.621Z,4.30
2018-02-21T21:13:22.879Z,4.20
2018-02-21T21:15:51.121Z,4.30
2018-02-21T21:18:19.637Z,4.30
2018-02-21T21:20:47.878Z,4.40
2018-02-21T21:23:16.122Z,4.30
2018-02-21T21:25:44.390Z,4.30
2018-02-21T21:28:12.646Z,4.20
2018-02-21T21:30:40.894Z,4.10
2018-02-21T21:33:09.173Z,4.00
2018-02-21T21:35:38.650Z,4.10
2018-02-21T21:38:07.025Z,4.10
2018-02-21T21:40:35.505Z,4.10
2018-02-21T21:43:03.755Z,4.20
2018-02-21T21:45:32.014Z,4.20
2018-02-21T21:48:00.298Z,4.30
2018-02-21T21:50:28.546Z,4.20
2018-02-21T21:52:56.789Z,4.10
2018-02-21T21:55:26.046Z,4.00
2018-02-21T21:57:54.366Z,3.90
2018-02-21T22:00:22.614Z,3.90
2018-02-21T22:02:50.953Z,3.70
2018-02-21T22:05:19.198Z,3.80
2018-02-21T22:07:47.467Z,4.00
2018-02-21T22:10:15.725Z,3.90
2018-02-21T22:12:44.026Z,3.80
2018-02-21T22:15:12.409Z,3.70
2018-02-21T22:17:40.686Z,3.70
2018-02-21T22:20:08.944Z,3.70
2018-02-21T22:22:37.237Z,3.70
2018-02-21T22:25:06.011Z,3.70
2018-02-21T22:27:34.306Z,3.60
2018-02-21T22:30:02.554Z,3.50
2018-02-21T22:32:30.830Z,3.40
2018-02-21T22:35:00.256Z,3.50
2018-02-21T22:37:28.494Z,3.60
2018-02-21T22:39:56.770Z,3.50
2018-02-21T22:42:25.018Z,3.50
2018-02-21T22:44:53.262Z,3.50
2018-02-21T22:47:22.941Z,3.50
2018-02-21T22:49:51.188Z,3.40
2018-02-21T22:52:19.429Z,3.30
2018-02-21T22:54:47.737Z,3.50
2018-02-21T22:57:15.982Z,3.40
2018-02-21T22:59:44.457Z,3.30
2018-02-21T23:02:12.730Z,3.20
2018-02-21T23:04:41.085Z,3.20
2018-02-21T23:07:09.338Z,3.20
2018-02-21T23:09:37.673Z,3.10
2018-02-21T23:12:06.054Z,3.20
2018-02-21T23:14:34.426Z,3.20
2018-02-21T23:17:02.826Z,3.20
2018-02-21T23:19:31.834Z,3.00
2018-02-21T23:22:00.861Z,3.00
2018-02-21T23:24:29.206Z,2.90
2018-02-21T23:26:58.229Z,2.80
2018-02-21T23:29:26.489Z,2.80
2018-02-21T23:31:54.994Z,2.80
2018-02-21T23:34:23.242Z,2.70
2018-02-21T23:36:51.986Z,2.70
2018-02-21T23:39:20.401Z,2.70
2018-02-21T23:41:49.430Z,2.80
2018-02-21T23:44:17.731Z,2.80
2018-02-21T23:46:49.226Z,2.70
2018-02-21T23:49:18.249Z,2.60
2018-02-21T23:51:46.501Z,2.60
2018-02-21T23:54:15.055Z,2.70
2018-02-21T23:56:43.262Z,2.70
2018-02-21T23:59:11.702Z,2.70
